Time;durP1;ratioP1;P1;durP2;ratioP2;P2;SDS_P1;SDS_P2;PMS_P1;PMS_P2;Temp;Humidity;BMP_temperature;BMP_pressure;BME280_temperature;BME280_humidity;BME280_pressure;Samples;Min_cycle;Max_cycle;Signal;HPM_P1;HPM_P2
2023/12/16 00:00:40;;;;;;;;;;;7.00;99.90;;;;;;5080433;28;20062;-31
2023/12/16 00:03:07;;;;;;;;;;;6.90;99.90;;;;;;5082369;28;19985;-30
2023/12/16 00:05:33;;;;;;;;;;;6.90;99.90;;;;;;5080485;28;19990;-31
2023/12/16 00:08:01;;;;;;;;;;;6.90;99.90;;;;;;5084283;28;20284;-31
2023/12/16 00:10:28;;;;;;;;;;;6.90;99.90;;;;;;5084756;28;21172;-32
2023/12/16 00:12:55;;;;;;;;;;;6.90;99.90;;;;;;5086148;28;20461;-32
2023/12/16 00:15:21;;;;;;;;;;;7.00;99.90;;;;;;5096715;28;20313;-31
2023/12/16 00:17:48;;;;;;;;;;;6.90;99.90;;;;;;5079319;28;19940;-31
2023/12/16 00:20:15;;;;;;;;;;;6.90;99.90;;;;;;5080253;28;19969;-32
2023/12/16 00:22:42;;;;;;;;;;;6.90;99.90;;;;;;5094759;28;19940;-32
2023/12/16 00:25:10;;;;;;;;;;;6.90;99.90;;;;;;5076409;28;19938;-31
2023/12/16 00:27:36;;;;;;;;;;;6.90;99.90;;;;;;5089748;28;19941;-31
2023/12/16 00:30:03;;;;;;;;;;;6.90;99.90;;;;;;5081320;28;20475;-31
2023/12/16 00:32:30;;;;;;;;;;;6.90;99.90;;;;;;5089571;28;20026;-31
2023/12/16 00:34:56;;;;;;;;;;;6.90;99.90;;;;;;5085867;28;20368;-30
2023/12/16 00:37:23;;;;;;;;;;;6.90;99.90;;;;;;5088730;28;20031;-31
2023/12/16 00:39:50;;;;;;;;;;;6.90;99.90;;;;;;5097465;28;20365;-31
2023/12/16 00:42:18;;;;;;;;;;;6.90;99.90;;;;;;5074497;28;19980;-30
2023/12/16 00:44:44;;;;;;;;;;;6.90;99.90;;;;;;5079721;28;19981;-31
2023/12/16 00:47:11;;;;;;;;;;;6.90;99.90;;;;;;5083956;28;20036;-31
2023/12/16 00:49:37;;;;;;;;;;;6.90;99.90;;;;;;5077838;28;20000;-31
2023/12/16 00:52:04;;;;;;;;;;;6.90;99.90;;;;;;5090488;28;20036;-31
2023/12/16 00:54:31;;;;;;;;;;;6.90;99.90;;;;;;5080216;28;19980;-30
2023/12/16 00:56:58;;;;;;;;;;;6.90;99.90;;;;;;5083353;28;20401;-31
2023/12/16 00:59:26;;;;;;;;;;;6.90;99.90;;;;;;5071095;28;20000;-31
2023/12/16 01:01:53;;;;;;;;;;;6.90;99.90;;;;;;5099052;28;19932;-31
2023/12/16 01:04:19;;;;;;;;;;;6.80;99.90;;;;;;5081048;28;20043;-31
2023/12/16 01:06:46;;;;;;;;;;;6.80;99.90;;;;;;5083488;28;20007;-31
2023/12/16 01:09:12;;;;;;;;;;;6.80;99.90;;;;;;5075697;28;19971;-32
2023/12/16 01:11:40;;;;;;;;;;;6.70;99.90;;;;;;5090315;28;19990;-32
2023/12/16 01:14:07;;;;;;;;;;;6.70;99.90;;;;;;5106390;28;20364;-31
2023/12/16 01:16:35;;;;;;;;;;;6.70;99.90;;;;;;5105033;28;20380;-31
2023/12/16 01:19:01;;;;;;;;;;;6.70;99.90;;;;;;5109639;28;19944;-31
2023/12/16 01:21:28;;;;;;;;;;;6.60;99.90;;;;;;5107566;28;19928;-31
2023/12/16 01:23:55;;;;;;;;;;;6.60;99.90;;;;;;5106203;28;20262;-32
2023/12/16 01:26:21;;;;;;;;;;;6.50;99.90;;;;;;5107969;28;19934;-32
2023/12/16 01:28:48;;;;;;;;;;;6.50;99.90;;;;;;5110420;28;20452;-32
2023/12/16 01:31:14;;;;;;;;;;;6.50;99.90;;;;;;5106493;28;20031;-31
2023/12/16 01:33:42;;;;;;;;;;;6.50;99.90;;;;;;5107291;28;20037;-32
2023/12/16 01:36:09;;;;;;;;;;;6.40;99.90;;;;;;5109149;28;19952;-31
2023/12/16 01:38:36;;;;;;;;;;;6.40;99.90;;;;;;5110522;28;20000;-31
2023/12/16 01:41:03;;;;;;;;;;;6.40;99.90;;;;;;5105654;28;20054;-31
2023/12/16 01:43:29;;;;;;;;;;;6.30;99.90;;;;;;5109514;28;19985;-31
2023/12/16 01:45:59;;;;;;;;;;;6.30;99.90;;;;;;5109362;27;20009;-32
2023/12/16 01:48:25;;;;;;;;;;;6.20;99.90;;;;;;5107625;28;19977;-31
2023/12/16 01:50:53;;;;;;;;;;;6.20;99.90;;;;;;5105452;28;20064;-32
2023/12/16 01:53:20;;;;;;;;;;;6.20;99.90;;;;;;5109819;28;20348;-32
2023/12/16 01:55:47;;;;;;;;;;;6.20;99.90;;;;;;5107025;28;19941;-31
2023/12/16 01:58:13;;;;;;;;;;;6.20;99.90;;;;;;5107930;28;19988;-32
2023/12/16 02:00:40;;;;;;;;;;;6.20;99.90;;;;;;5107641;28;19943;-31
2023/12/16 02:03:06;;;;;;;;;;;6.20;99.90;;;;;;5103889;28;20419;-32
2023/12/16 02:05:33;;;;;;;;;;;6.20;99.90;;;;;;5106893;28;21251;-32
2023/12/16 02:08:01;;;;;;;;;;;6.10;99.90;;;;;;5109066;28;19940;-31
2023/12/16 02:10:28;;;;;;;;;;;6.10;99.90;;;;;;5104848;28;20661;-31
2023/12/16 02:12:54;;;;;;;;;;;6.10;99.90;;;;;;5104234;28;19959;-31
2023/12/16 02:15:21;;;;;;;;;;;6.10;99.90;;;;;;5086649;28;19940;-31
2023/12/16 02:17:48;;;;;;;;;;;6.10;99.90;;;;;;5102448;28;20019;-30
2023/12/16 02:20:15;;;;;;;;;;;6.10;99.90;;;;;;5104661;28;19924;-31
2023/12/16 02:22:42;;;;;;;;;;;6.10;99.90;;;;;;5079033;28;20376;-31
2023/12/16 02:25:10;;;;;;;;;;;6.10;99.90;;;;;;5091547;28;19981;-31
2023/12/16 02:27:37;;;;;;;;;;;6.10;99.90;;;;;;5080887;28;19935;-30
2023/12/16 02:30:04;;;;;;;;;;;6.10;99.90;;;;;;5081417;28;20007;-31
2023/12/16 02:32:31;;;;;;;;;;;6.00;99.90;;;;;;5079491;28;19940;-30
2023/12/16 02:34:57;;;;;;;;;;;6.10;99.90;;;;;;5078701;28;20020;-31
2023/12/16 02:37:24;;;;;;;;;;;6.00;99.90;;;;;;5081033;28;19938;-31
2023/12/16 02:39:51;;;;;;;;;;;6.00;99.90;;;;;;5097918;28;21081;-30
2023/12/16 02:42:19;;;;;;;;;;;6.00;99.90;;;;;;5095540;28;20375;-31
2023/12/16 02:44:45;;;;;;;;;;;6.00;99.90;;;;;;5104834;28;19940;-31
2023/12/16 02:47:12;;;;;;;;;;;6.00;99.90;;;;;;5096345;28;20469;-30
2023/12/16 02:49:39;;;;;;;;;;;5.90;99.90;;;;;;5095888;28;20020;-30
2023/12/16 02:52:06;;;;;;;;;;;6.00;99.90;;;;;;5082578;28;19955;-31
2023/12/16 02:54:33;;;;;;;;;;;6.00;99.90;;;;;;5082866;28;19936;-31
2023/12/16 02:56:59;;;;;;;;;;;6.00;99.90;;;;;;5092100;28;19938;-31
2023/12/16 02:59:27;;;;;;;;;;;5.90;99.90;;;;;;5081941;28;20437;-31
2023/12/16 03:01:54;;;;;;;;;;;6.00;99.90;;;;;;5083665;28;20385;-31
2023/12/16 03:04:21;;;;;;;;;;;6.00;99.90;;;;;;5098787;28;19998;-31
2023/12/16 03:06:47;;;;;;;;;;;5.90;99.90;;;;;;5077447;28;20408;-31
2023/12/16 03:09:14;;;;;;;;;;;5.90;99.90;;;;;;5091786;28;19934;-31
2023/12/16 03:11:41;;;;;;;;;;;5.90;99.90;;;;;;5082575;28;20015;-30
2023/12/16 03:14:07;;;;;;;;;;;5.90;99.90;;;;;;5092281;28;19954;-31
2023/12/16 03:16:35;;;;;;;;;;;5.90;99.90;;;;;;5100959;28;19998;-30
2023/12/16 03:19:02;;;;;;;;;;;5.90;99.90;;;;;;5097247;28;20006;-32
2023/12/16 03:21:29;;;;;;;;;;;5.80;99.90;;;;;;5084457;28;19994;-31
2023/12/16 03:23:55;;;;;;;;;;;5.90;99.90;;;;;;5094019;28;20020;-31
2023/12/16 03:26:22;;;;;;;;;;;5.80;99.90;;;;;;5081234;28;20475;-30
2023/12/16 03:28:48;;;;;;;;;;;5.80;99.90;;;;;;5089014;28;19975;-30
2023/12/16 03:31:15;;;;;;;;;;;5.80;99.90;;;;;;5094890;28;20058;-31
2023/12/16 03:33:43;;;;;;;;;;;5.80;99.90;;;;;;5094440;28;19985;-31
2023/12/16 03:36:10;;;;;;;;;;;5.80;99.90;;;;;;5082246;28;19980;-32
2023/12/16 03:38:36;;;;;;;;;;;5.80;99.90;;;;;;5085783;28;19943;-32
2023/12/16 03:41:04;;;;;;;;;;;5.80;99.90;;;;;;5077929;28;20356;-32
2023/12/16 03:43:31;;;;;;;;;;;5.80;99.90;;;;;;5092648;28;20396;-31
2023/12/16 03:45:58;;;;;;;;;;;5.80;99.90;;;;;;5095269;28;19936;-31
2023/12/16 03:48:24;;;;;;;;;;;5.80;99.90;;;;;;5083831;28;19941;-32
2023/12/16 03:50:52;;;;;;;;;;;5.80;99.90;;;;;;5094316;28;19955;-31
2023/12/16 03:53:19;;;;;;;;;;;5.80;99.90;;;;;;5098875;28;19937;-31
2023/12/16 03:55:46;;;;;;;;;;;5.80;99.90;;;;;;5080832;28;19980;-31
2023/12/16 03:58:12;;;;;;;;;;;5.80;99.90;;;;;;5072187;28;19945;-31
2023/12/16 04:00:39;;;;;;;;;;;5.80;99.90;;;;;;5078155;28;19985;-31
2023/12/16 04:03:06;;;;;;;;;;;5.80;99.90;;;;;;5101890;28;20300;-30
2023/12/16 04:05:32;;;;;;;;;;;5.80;99.90;;;;;;5098372;28;19934;-32
2023/12/16 04:08:00;;;;;;;;;;;5.80;99.90;;;;;;5083861;28;20258;-32
2023/12/16 04:10:27;;;;;;;;;;;5.80;99.90;;;;;;5093407;28;19994;-31
2023/12/16 04:12:53;;;;;;;;;;;5.80;99.90;;;;;;5096182;28;20413;-31
2023/12/16 04:15:20;;;;;;;;;;;5.70;99.90;;;;;;5068419;28;19952;-31
2023/12/16 04:17:47;;;;;;;;;;;5.70;99.90;;;;;;5086711;28;19999;-31
2023/12/16 04:20:13;;;;;;;;;;;5.70;99.90;;;;;;5066822;28;19986;-31
2023/12/16 04:22:40;;;;;;;;;;;5.70;99.90;;;;;;5067040;28;20414;-30
2023/12/16 04:25:10;;;;;;;;;;;5.70;99.90;;;;;;5066637;28;19943;-30
2023/12/16 04:27:37;;;;;;;;;;;5.70;99.90;;;;;;5065905;28;20262;-31
2023/12/16 04:30:04;;;;;;;;;;;5.70;99.90;;;;;;5066921;28;19950;-31
2023/12/16 04:32:31;;;;;;;;;;;5.70;99.90;;;;;;5085266;28;19975;-31
2023/12/16 04:34:57;;;;;;;;;;;5.70;99.90;;;;;;5066887;28;19995;-31
2023/12/16 04:37:24;;;;;;;;;;;5.70;99.90;;;;;;5084555;28;20014;-31
2023/12/16 04:39:51;;;;;;;;;;;5.70;99.90;;;;;;5067981;28;19945;-31
2023/12/16 04:42:19;;;;;;;;;;;5.70;99.90;;;;;;5086490;28;19942;-31
2023/12/16 04:44:46;;;;;;;;;;;5.70;99.90;;;;;;5068120;28;19940;-31
2023/12/16 04:47:13;;;;;;;;;;;5.70;99.90;;;;;;5090529;28;20405;-31
2023/12/16 04:49:40;;;;;;;;;;;5.70;99.90;;;;;;5089066;28;19993;-32
2023/12/16 04:52:07;;;;;;;;;;;5.70;99.90;;;;;;5090837;28;19924;-30
2023/12/16 04:54:33;;;;;;;;;;;5.70;99.90;;;;;;5071906;28;19986;-30
2023/12/16 04:57:00;;;;;;;;;;;5.70;99.90;;;;;;5069824;28;19938;-31
2023/12/16 04:59:28;;;;;;;;;;;5.70;99.90;;;;;;5068466;28;19961;-31
2023/12/16 05:01:55;;;;;;;;;;;5.60;99.90;;;;;;5068907;28;20618;-31
2023/12/16 05:04:22;;;;;;;;;;;5.70;99.90;;;;;;5071904;28;19936;-31
2023/12/16 05:06:49;;;;;;;;;;;5.70;99.90;;;;;;5089137;28;20014;-32
2023/12/16 05:09:15;;;;;;;;;;;5.70;99.90;;;;;;5088673;28;19933;-31
2023/12/16 05:11:42;;;;;;;;;;;5.70;99.90;;;;;;5071529;28;20428;-31
2023/12/16 05:14:09;;;;;;;;;;;5.70;99.90;;;;;;5082781;28;19924;-34
2023/12/16 05:16:37;;;;;;;;;;;5.70;99.90;;;;;;5089836;28;20540;-31
2023/12/16 05:19:03;;;;;;;;;;;5.70;99.90;;;;;;5087937;28;19943;-31
2023/12/16 05:21:30;;;;;;;;;;;5.70;99.90;;;;;;5087413;28;20045;-31
2023/12/16 05:23:56;;;;;;;;;;;5.70;99.90;;;;;;5088680;28;19938;-31
2023/12/16 05:26:23;;;;;;;;;;;5.70;99.90;;;;;;5087465;28;19935;-31
2023/12/16 05:28:49;;;;;;;;;;;5.70;99.90;;;;;;5088483;28;19945;-31
2023/12/16 05:31:16;;;;;;;;;;;5.70;99.90;;;;;;5085716;28;20063;-31
2023/12/16 05:33:44;;;;;;;;;;;5.70;99.90;;;;;;5088289;28;19945;-32
2023/12/16 05:36:11;;;;;;;;;;;5.70;99.90;;;;;;5087474;28;19942;-33
2023/12/16 05:38:38;;;;;;;;;;;5.70;99.90;;;;;;5090229;28;19924;-31
2023/12/16 05:41:04;;;;;;;;;;;5.70;99.90;;;;;;5088660;28;20356;-31
2023/12/16 05:43:31;;;;;;;;;;;5.70;99.90;;;;;;5088661;28;20014;-31
2023/12/16 05:45:58;;;;;;;;;;;5.70;99.90;;;;;;5090235;28;19940;-31
2023/12/16 05:48:24;;;;;;;;;;;5.70;99.90;;;;;;5087390;28;20444;-30
2023/12/16 05:50:52;;;;;;;;;;;5.70;99.90;;;;;;5088222;28;19966;-31
2023/12/16 05:53:19;;;;;;;;;;;5.70;99.90;;;;;;5088175;28;19998;-30
2023/12/16 05:55:47;;;;;;;;;;;5.80;99.90;;;;;;5089309;28;19995;-30
2023/12/16 05:58:14;;;;;;;;;;;5.70;99.90;;;;;;5087534;28;19937;-30
2023/12/16 06:00:40;;;;;;;;;;;5.70;99.90;;;;;;5084527;28;20041;-30
2023/12/16 06:03:07;;;;;;;;;;;5.70;99.90;;;;;;5084113;28;20388;-31
2023/12/16 06:05:33;;;;;;;;;;;5.70;99.90;;;;;;5085478;28;19984;-31
2023/12/16 06:08:02;;;;;;;;;;;5.70;99.90;;;;;;5084577;28;19995;-32
2023/12/16 06:10:28;;;;;;;;;;;5.70;99.90;;;;;;5087190;28;20017;-31
2023/12/16 06:12:55;;;;;;;;;;;5.70;99.90;;;;;;5088684;28;19954;-30
2023/12/16 06:15:21;;;;;;;;;;;5.70;99.90;;;;;;5106007;28;19941;-32
2023/12/16 06:17:48;;;;;;;;;;;5.70;99.90;;;;;;5104308;28;19943;-30
2023/12/16 06:20:15;;;;;;;;;;;5.70;99.90;;;;;;5104974;28;19969;-31
2023/12/16 06:22:42;;;;;;;;;;;5.70;99.90;;;;;;5105381;28;20468;-32
2023/12/16 06:25:10;;;;;;;;;;;5.70;99.90;;;;;;5102930;28;19939;-31
2023/12/16 06:27:36;;;;;;;;;;;5.70;99.90;;;;;;5103089;28;19988;-30
2023/12/16 06:30:04;;;;;;;;;;;5.70;99.90;;;;;;5103022;28;20392;-32
2023/12/16 06:32:30;;;;;;;;;;;5.70;99.90;;;;;;5106242;28;19962;-32
2023/12/16 06:34:57;;;;;;;;;;;5.70;99.90;;;;;;5106407;28;19977;-32
2023/12/16 06:37:24;;;;;;;;;;;5.80;99.90;;;;;;5102506;28;19937;-31
2023/12/16 06:39:50;;;;;;;;;;;5.80;99.90;;;;;;5100437;28;19981;-31
2023/12/16 06:42:18;;;;;;;;;;;5.80;99.90;;;;;;5103207;27;19957;-31
2023/12/16 06:44:45;;;;;;;;;;;5.70;99.90;;;;;;5103551;27;19934;-31
2023/12/16 06:47:12;;;;;;;;;;;5.80;99.90;;;;;;5102951;28;20242;-30
2023/12/16 06:49:39;;;;;;;;;;;5.80;99.90;;;;;;5101613;28;19942;-31
2023/12/16 06:52:05;;;;;;;;;;;5.80;99.90;;;;;;5103789;28;20432;-31
2023/12/16 06:54:33;;;;;;;;;;;5.80;99.90;;;;;;5103961;28;19938;-31
2023/12/16 06:56:59;;;;;;;;;;;5.80;99.90;;;;;;5099790;28;20394;-32
2023/12/16 06:59:27;;;;;;;;;;;5.80;99.90;;;;;;5105065;28;19973;-31
2023/12/16 07:01:54;;;;;;;;;;;5.80;99.90;;;;;;5104060;27;19948;-31
2023/12/16 07:04:21;;;;;;;;;;;5.80;99.90;;;;;;5107332;28;19937;-30
2023/12/16 07:06:47;;;;;;;;;;;5.80;99.90;;;;;;5109395;28;19940;-30
2023/12/16 07:09:14;;;;;;;;;;;5.80;99.90;;;;;;5102916;28;19938;-31
2023/12/16 07:11:40;;;;;;;;;;;5.80;99.90;;;;;;5106170;28;20419;-31
2023/12/16 07:14:08;;;;;;;;;;;5.80;99.90;;;;;;5090284;28;19941;-31
2023/12/16 07:16:36;;;;;;;;;;;5.80;99.90;;;;;;5098175;28;20041;-31
2023/12/16 07:19:03;;;;;;;;;;;5.90;99.90;;;;;;5090074;28;19936;-31
2023/12/16 07:21:30;;;;;;;;;;;5.90;99.90;;;;;;5089991;28;19935;-31
2023/12/16 07:23:56;;;;;;;;;;;5.90;99.90;;;;;;5090919;28;19941;-31
2023/12/16 07:26:23;;;;;;;;;;;6.00;99.90;;;;;;5090029;28;19941;-32
2023/12/16 07:28:50;;;;;;;;;;;6.00;99.90;;;;;;5091002;28;20403;-31
2023/12/16 07:31:16;;;;;;;;;;;6.00;99.90;;;;;;5083183;28;19958;-30
2023/12/16 07:33:44;;;;;;;;;;;6.10;99.90;;;;;;5092648;28;20021;-30
2023/12/16 07:36:12;;;;;;;;;;;6.00;99.90;;;;;;5088991;28;20384;-30
2023/12/16 07:38:38;;;;;;;;;;;6.10;99.90;;;;;;5086848;28;19977;-30
2023/12/16 07:41:05;;;;;;;;;;;6.10;99.90;;;;;;5088390;28;20343;-32
2023/12/16 07:43:32;;;;;;;;;;;6.10;99.90;;;;;;5094170;28;19939;-32
2023/12/16 07:45:58;;;;;;;;;;;6.20;99.90;;;;;;5089199;28;19993;-31
2023/12/16 07:48:25;;;;;;;;;;;6.20;99.90;;;;;;5093347;28;19985;-32
2023/12/16 07:50:53;;;;;;;;;;;6.20;99.90;;;;;;5091091;28;19940;-31
2023/12/16 07:53:20;;;;;;;;;;;6.20;99.90;;;;;;5096152;28;19948;-30
2023/12/16 07:55:47;;;;;;;;;;;6.20;99.90;;;;;;5088057;28;20371;-31
2023/12/16 07:58:15;;;;;;;;;;;6.20;99.90;;;;;;5099293;28;20052;-30
2023/12/16 08:00:41;;;;;;;;;;;6.30;99.90;;;;;;5093036;28;20743;-31
2023/12/16 08:03:08;;;;;;;;;;;6.30;99.90;;;;;;5088906;28;19937;-30
2023/12/16 08:05:34;;;;;;;;;;;6.30;99.90;;;;;;5092275;28;19991;-31
2023/12/16 08:08:02;;;;;;;;;;;6.30;99.90;;;;;;5090816;28;19941;-31
2023/12/16 08:10:29;;;;;;;;;;;6.30;99.90;;;;;;5091544;28;19935;-31
2023/12/16 08:12:56;;;;;;;;;;;6.40;99.90;;;;;;5096801;28;19974;-31
2023/12/16 08:15:23;;;;;;;;;;;6.40;99.90;;;;;;5113006;28;19979;-31
2023/12/16 08:17:49;;;;;;;;;;;6.40;99.90;;;;;;5104244;28;19995;-30
2023/12/16 08:20:16;;;;;;;;;;;6.40;99.90;;;;;;5113852;27;19983;-32
2023/12/16 08:22:43;;;;;;;;;;;6.50;99.90;;;;;;5119182;27;20348;-31
2023/12/16 08:25:11;;;;;;;;;;;6.50;99.90;;;;;;5118842;27;20303;-31
2023/12/16 08:27:37;;;;;;;;;;;6.50;99.90;;;;;;5116812;27;19942;-31
2023/12/16 08:30:05;;;;;;;;;;;6.50;99.90;;;;;;5119171;27;20483;-31
2023/12/16 08:32:32;;;;;;;;;;;6.50;99.90;;;;;;5118655;27;19924;-31
2023/12/16 08:34:59;;;;;;;;;;;6.60;99.90;;;;;;5135966;27;19948;-31
2023/12/16 08:37:26;;;;;;;;;;;6.60;99.90;;;;;;5115499;27;19975;-32
2023/12/16 08:39:52;;;;;;;;;;;6.60;99.90;;;;;;5112523;27;20460;-31
2023/12/16 08:42:20;;;;;;;;;;;6.60;99.90;;;;;;5135505;27;20011;-32
2023/12/16 08:44:47;;;;;;;;;;;6.60;99.90;;;;;;5118378;27;19966;-32
2023/12/16 08:47:14;;;;;;;;;;;6.70;99.90;;;;;;5104607;28;19944;-31
2023/12/16 08:49:43;;;;;;;;;;;6.70;99.90;;;;;;5135882;27;19976;-31
2023/12/16 08:52:10;;;;;;;;;;;6.70;99.90;;;;;;5117063;27;19958;-31
2023/12/16 08:54:37;;;;;;;;;;;6.70;99.90;;;;;;5117927;27;19993;-29
2023/12/16 08:57:04;;;;;;;;;;;6.70;99.90;;;;;;5117232;27;19946;-32
2023/12/16 08:59:32;;;;;;;;;;;6.80;99.90;;;;;;5118666;27;19982;-31
2023/12/16 09:01:59;;;;;;;;;;;6.80;99.90;;;;;;5136376;27;19946;-31
2023/12/16 09:04:25;;;;;;;;;;;6.80;99.90;;;;;;5134291;27;19986;-31
2023/12/16 09:06:52;;;;;;;;;;;6.90;99.90;;;;;;5128668;27;20002;-32
2023/12/16 09:09:18;;;;;;;;;;;6.90;99.90;;;;;;5100992;27;19997;-33
2023/12/16 09:11:45;;;;;;;;;;;6.90;99.90;;;;;;5123103;27;20006;-31
2023/12/16 09:14:12;;;;;;;;;;;7.00;99.90;;;;;;5114631;27;19958;-31
2023/12/16 09:16:40;;;;;;;;;;;7.00;99.90;;;;;;5135626;27;19978;-30
2023/12/16 09:19:07;;;;;;;;;;;7.00;99.90;;;;;;5118225;27;19992;-31
2023/12/16 09:21:33;;;;;;;;;;;7.00;99.90;;;;;;5136195;27;19941;-31
2023/12/16 09:24:00;;;;;;;;;;;7.00;99.90;;;;;;5136088;27;19983;-32
2023/12/16 09:26:27;;;;;;;;;;;7.00;99.90;;;;;;5135387;27;19928;-32
2023/12/16 09:28:53;;;;;;;;;;;7.10;99.90;;;;;;5117428;27;19934;-31
2023/12/16 09:31:20;;;;;;;;;;;7.10;99.90;;;;;;5114853;28;19938;-32
2023/12/16 09:33:48;;;;;;;;;;;7.10;99.90;;;;;;5116862;27;19987;-32
2023/12/16 09:36:14;;;;;;;;;;;7.10;99.90;;;;;;5117326;27;20006;-32
2023/12/16 09:38:41;;;;;;;;;;;7.10;99.90;;;;;;5117208;27;20002;-32
2023/12/16 09:41:22;;;;;;;;;;;7.10;99.90;;;;;;5121799;27;20041;-31
2023/12/16 09:43:49;;;;;;;;;;;7.20;99.90;;;;;;5117652;27;19941;-31
2023/12/16 09:46:16;;;;;;;;;;;7.20;99.90;;;;;;5109853;28;19987;-32
2023/12/16 09:48:42;;;;;;;;;;;7.20;99.90;;;;;;5098020;27;19990;-32
2023/12/16 09:51:10;;;;;;;;;;;7.20;99.90;;;;;;5117489;27;20027;-32
2023/12/16 09:53:39;;;;;;;;;;;7.30;99.90;;;;;;5116825;27;19965;-31
2023/12/16 09:56:06;;;;;;;;;;;7.20;99.90;;;;;;5135666;27;19938;-31
2023/12/16 09:58:32;;;;;;;;;;;7.20;99.90;;;;;;5134799;27;20367;-32
2023/12/16 10:00:59;;;;;;;;;;;7.30;99.90;;;;;;5135565;27;19975;-31
2023/12/16 10:03:26;;;;;;;;;;;7.30;99.90;;;;;;5116522;27;19991;-31
2023/12/16 10:05:52;;;;;;;;;;;7.30;99.90;;;;;;5117132;27;19975;-31
2023/12/16 10:08:20;;;;;;;;;;;7.30;99.90;;;;;;5117052;27;19986;-32
2023/12/16 10:10:47;;;;;;;;;;;7.30;99.90;;;;;;5135175;27;19939;-31
2023/12/16 10:13:14;;;;;;;;;;;7.30;99.90;;;;;;5134586;27;20299;-31
2023/12/16 10:15:41;;;;;;;;;;;7.30;99.90;;;;;;5115455;27;20017;-32
2023/12/16 10:18:07;;;;;;;;;;;7.30;99.90;;;;;;5117069;27;19946;-31
2023/12/16 10:20:34;;;;;;;;;;;7.40;99.90;;;;;;5116095;27;19941;-30
2023/12/16 10:23:01;;;;;;;;;;;7.30;99.90;;;;;;5116066;27;20022;-32
2023/12/16 10:25:30;;;;;;;;;;;7.30;99.90;;;;;;5115404;27;19936;-32
2023/12/16 10:27:58;;;;;;;;;;;7.40;99.90;;;;;;5116771;27;19941;-31
2023/12/16 10:30:25;;;;;;;;;;;7.40;99.90;;;;;;5113945;27;19959;-31
2023/12/16 10:32:52;;;;;;;;;;;7.40;99.90;;;;;;5114173;27;19957;-32
2023/12/16 10:35:21;;;;;;;;;;;7.40;99.90;;;;;;5115208;27;19923;-32
2023/12/16 10:37:49;;;;;;;;;;;7.40;99.90;;;;;;5133307;27;19948;-33
2023/12/16 10:40:16;;;;;;;;;;;7.40;99.90;;;;;;5115835;27;19948;-31
2023/12/16 10:42:44;;;;;;;;;;;7.40;99.90;;;;;;5115337;27;19945;-32
2023/12/16 10:45:11;;;;;;;;;;;7.40;99.90;;;;;;5133540;27;20282;-32
2023/12/16 10:47:38;;;;;;;;;;;7.40;99.90;;;;;;5133365;27;19939;-31
2023/12/16 10:50:06;;;;;;;;;;;7.40;99.90;;;;;;5116008;27;20384;-32
2023/12/16 10:52:35;;;;;;;;;;;7.40;99.90;;;;;;5114692;27;19955;-31
2023/12/16 10:55:02;;;;;;;;;;;7.40;99.90;;;;;;5133689;27;20292;-32
2023/12/16 10:57:29;;;;;;;;;;;7.30;99.90;;;;;;5116130;27;19986;-31
2023/12/16 10:59:59;;;;;;;;;;;7.40;99.90;;;;;;5113698;27;19945;-31
2023/12/16 11:02:28;;;;;;;;;;;7.40;99.90;;;;;;5109338;27;20088;-31
2023/12/16 11:05:04;;;;;;;;;;;7.40;99.90;;;;;;5086866;28;20411;-36
2023/12/16 11:07:31;;;;;;;;;;;7.40;99.90;;;;;;5080011;28;19937;-36
2023/12/16 11:09:58;;;;;;;;;;;7.40;99.90;;;;;;5074495;28;20337;-35
2023/12/16 11:12:25;;;;;;;;;;;7.40;99.90;;;;;;5075272;28;20434;-35
2023/12/16 11:14:54;;;;;;;;;;;7.40;99.90;;;;;;5079767;28;20313;-35
2023/12/16 11:17:23;;;;;;;;;;;7.40;99.90;;;;;;5071590;28;19987;-35
2023/12/16 11:19:50;;;;;;;;;;;7.40;99.90;;;;;;5071210;28;20399;-38
2023/12/16 11:22:19;;;;;;;;;;;7.40;99.90;;;;;;5078301;28;19940;-35
2023/12/16 11:24:46;;;;;;;;;;;7.50;99.90;;;;;;5066544;28;20329;-34
2023/12/16 11:27:12;;;;;;;;;;;7.50;99.90;;;;;;5060864;28;19947;-35
2023/12/16 11:29:41;;;;;;;;;;;7.50;99.90;;;;;;5064711;28;20437;-35
2023/12/16 11:32:08;;;;;;;;;;;7.50;99.90;;;;;;5063497;28;19950;-35
2023/12/16 11:34:44;;;;;;;;;;;7.60;99.90;;;;;;5058871;28;20071;-36
2023/12/16 11:37:11;;;;;;;;;;;7.60;99.90;;;;;;5063373;28;19938;-35
2023/12/16 11:39:40;;;;;;;;;;;7.50;99.90;;;;;;5067513;28;19938;-34
2023/12/16 11:42:07;;;;;;;;;;;7.60;99.90;;;;;;5060745;28;20336;-35
2023/12/16 11:44:49;;;;;;;;;;;7.60;99.90;;;;;;5065453;28;20003;-35
2023/12/16 11:47:20;;;;;;;;;;;7.60;99.90;;;;;;5069834;28;19937;-36
2023/12/16 11:49:47;;;;;;;;;;;7.60;99.90;;;;;;5064408;28;19963;-35
2023/12/16 11:52:15;;;;;;;;;;;7.60;99.90;;;;;;5072824;28;19949;-35
2023/12/16 11:54:43;;;;;;;;;;;7.60;99.90;;;;;;5070080;28;19935;-35
2023/12/16 11:57:10;;;;;;;;;;;7.60;99.90;;;;;;5064605;28;20031;-37
2023/12/16 11:59:37;;;;;;;;;;;7.60;99.90;;;;;;5063778;28;19942;-36
2023/12/16 12:02:04;;;;;;;;;;;7.70;99.90;;;;;;5080999;28;19943;-35
2023/12/16 12:04:31;;;;;;;;;;;7.70;99.90;;;;;;5073783;28;19984;-34
2023/12/16 12:06:58;;;;;;;;;;;7.70;99.90;;;;;;5079838;28;19942;-34
2023/12/16 12:09:24;;;;;;;;;;;7.70;99.90;;;;;;5066824;28;19943;-35
2023/12/16 12:11:52;;;;;;;;;;;7.70;99.90;;;;;;5074879;28;19939;-36
2023/12/16 12:14:19;;;;;;;;;;;7.70;99.90;;;;;;5078232;28;19939;-35
2023/12/16 12:16:46;;;;;;;;;;;7.70;99.90;;;;;;5060980;28;19982;-34
2023/12/16 12:19:13;;;;;;;;;;;7.70;99.90;;;;;;5051960;28;19944;-35
2023/12/16 12:21:40;;;;;;;;;;;7.80;99.90;;;;;;5046773;28;19937;-35
2023/12/16 12:24:07;;;;;;;;;;;7.70;99.90;;;;;;5070949;28;20097;-36
2023/12/16 12:26:34;;;;;;;;;;;7.80;99.90;;;;;;5073621;28;20022;-34
2023/12/16 12:29:02;;;;;;;;;;;7.80;99.90;;;;;;5062851;28;19937;-34
2023/12/16 12:31:29;;;;;;;;;;;7.80;99.90;;;;;;5058372;28;20036;-35
2023/12/16 12:33:56;;;;;;;;;;;7.80;99.90;;;;;;5060218;28;19944;-34
2023/12/16 12:36:22;;;;;;;;;;;7.90;99.90;;;;;;5062816;28;19976;-34
2023/12/16 12:38:52;;;;;;;;;;;7.90;99.90;;;;;;5066742;28;20303;-34
2023/12/16 12:41:19;;;;;;;;;;;7.80;99.90;;;;;;5054490;28;19941;-34
2023/12/16 12:43:45;;;;;;;;;;;7.90;99.90;;;;;;5066015;28;20020;-34
2023/12/16 12:46:16;;;;;;;;;;;7.90;99.90;;;;;;5064328;28;20041;-36
2023/12/16 12:48:51;;;;;;;;;;;7.90;99.90;;;;;;5061230;28;19941;-34
2023/12/16 12:51:18;;;;;;;;;;;8.00;99.90;;;;;;5072373;28;19960;-34
2023/12/16 12:53:44;;;;;;;;;;;8.00;99.90;;;;;;5067174;28;20351;-35
2023/12/16 12:56:11;;;;;;;;;;;8.00;99.90;;;;;;5067713;28;20026;-34
2023/12/16 12:58:38;;;;;;;;;;;8.00;99.90;;;;;;5059039;28;20022;-34
2023/12/16 13:01:05;;;;;;;;;;;8.10;99.90;;;;;;5057498;28;19975;-35
2023/12/16 13:03:34;;;;;;;;;;;8.10;99.90;;;;;;5047262;28;20056;-35
2023/12/16 13:06:02;;;;;;;;;;;8.10;99.90;;;;;;5048359;28;20071;-34
2023/12/16 13:08:28;;;;;;;;;;;8.10;99.90;;;;;;5058767;28;19956;-35
2023/12/16 13:10:55;;;;;;;;;;;8.20;99.90;;;;;;5059051;28;19942;-36
2023/12/16 13:13:22;;;;;;;;;;;8.10;99.90;;;;;;5051551;28;20029;-35
2023/12/16 13:15:48;;;;;;;;;;;8.20;99.90;;;;;;5068288;28;20403;-34
2023/12/16 13:18:15;;;;;;;;;;;8.20;99.90;;;;;;5069902;28;19942;-34
2023/12/16 13:20:44;;;;;;;;;;;8.30;99.90;;;;;;5057721;28;19935;-34
2023/12/16 13:23:11;;;;;;;;;;;8.20;99.90;;;;;;5055088;28;19944;-35
2023/12/16 13:25:38;;;;;;;;;;;8.20;99.90;;;;;;5058524;28;19953;-35
2023/12/16 13:28:04;;;;;;;;;;;8.20;99.90;;;;;;5059865;28;20451;-34
2023/12/16 13:30:32;;;;;;;;;;;8.20;99.90;;;;;;5068630;28;19996;-34
2023/12/16 13:32:58;;;;;;;;;;;8.30;99.90;;;;;;5055292;28;19941;-34
2023/12/16 13:35:25;;;;;;;;;;;8.30;99.90;;;;;;5045599;28;19993;-35
2023/12/16 13:37:53;;;;;;;;;;;8.30;99.90;;;;;;5044783;28;19939;-37
2023/12/16 13:40:20;;;;;;;;;;;8.40;99.90;;;;;;5063500;28;19946;-35
2023/12/16 13:42:46;;;;;;;;;;;8.40;99.90;;;;;;5061914;28;20009;-35
2023/12/16 13:45:13;;;;;;;;;;;8.40;99.90;;;;;;5067413;28;19992;-36
2023/12/16 13:47:40;;;;;;;;;;;8.40;99.90;;;;;;5051573;28;19943;-35
2023/12/16 13:50:07;;;;;;;;;;;8.40;99.90;;;;;;5053641;28;19999;-34
2023/12/16 13:52:33;;;;;;;;;;;8.40;99.90;;;;;;5032336;28;19941;-33
2023/12/16 13:55:01;;;;;;;;;;;8.40;99.90;;;;;;5054634;28;19940;-35
2023/12/16 13:57:28;;;;;;;;;;;8.50;99.90;;;;;;5065879;28;19943;-34
2023/12/16 13:59:56;;;;;;;;;;;8.50;99.90;;;;;;5059988;28;20051;-35
2023/12/16 14:02:23;;;;;;;;;;;8.50;99.90;;;;;;5068115;28;19946;-35
2023/12/16 14:04:50;;;;;;;;;;;8.40;99.90;;;;;;5055128;28;20451;-35
2023/12/16 14:07:16;;;;;;;;;;;8.50;99.90;;;;;;5041495;28;19989;-36
2023/12/16 14:09:43;;;;;;;;;;;8.50;99.90;;;;;;5050952;28;19939;-36
2023/12/16 14:12:12;;;;;;;;;;;8.50;99.90;;;;;;5056747;28;19988;-35
2023/12/16 14:14:38;;;;;;;;;;;8.50;99.90;;;;;;5051286;28;19940;-36
2023/12/16 14:17:05;;;;;;;;;;;8.50;99.90;;;;;;5053010;28;20405;-37
2023/12/16 14:19:32;;;;;;;;;;;8.50;99.90;;;;;;5051485;28;19939;-35
2023/12/16 14:21:58;;;;;;;;;;;8.50;99.90;;;;;;5071839;28;19941;-35
2023/12/16 14:24:25;;;;;;;;;;;8.50;99.90;;;;;;5068716;28;20438;-37
2023/12/16 14:26:51;;;;;;;;;;;8.50;99.90;;;;;;5071993;28;19942;-35
2023/12/16 14:29:19;;;;;;;;;;;8.60;99.90;;;;;;5069311;28;19987;-34